Mike Trout (CF/LF, LAA)

Avg
0.313
HR
6
wOBA
0.399
nERD
3.48

Most Recent Player News

Los Angeles Angels outfielder Mike Trout finished 4-for-5 with a homer and three RBI's in a losing cause Monday against the Milwaukee Brewers.

What It Means:

After something of a slow start, at least by his incredible standards, Trout is close to his typical pace. He's sitting at .313/.396/.563 with six homers and 18 RBI's in 26 games.

We project Trout to keep it rolling Tuesday, ranking him as our No. 1 hitter for the night.

Source: Rotoworld.com
Posted on Tuesday, May 3rd, 2016 at 12:34pm EDT

Mike Trout Player Profile

Current Stats
Batting Average0.313
Hits30
SLUG0.563
OBP0.396
wOBA0.399
Statistical RankingsRank
Plate Appearances111#27
Runs15#34
Home Runs6#18
RBI18#18
Stolen Bases2#50
nERD3.48#19

Fantasy RankingsRank
Fantasy Score 5.91 #20
Projected Stats
Batting Average0.292
Hits168
SLUG0.545
OBP0.387
wOBA0.39
Statistical RankingsRank
Plate Appearances676#4
Runs98#5
Home Runs35#6
RBI98#10
Stolen Bases14#58
Batting Average0.292#14
OPS0.932#4

Fantasy RankingsRank
Fantasy Score 9.96 #5
Remaining This Season
Batting Average0.288
Hits138
SLUG0.542
OBP0.385
wOBA0.388
Statistical RankingsRank
Plate Appearances565#2
Runs83#5
Home Runs29#6
RBI80#10
Stolen Bases12#57
Batting Average0.288#16
OPS0.927#3

Fantasy RankingsRank
Fantasy Score 10.18 #3

Projections By Game

Date Opponent PA AB BB 1B 2B 3B HR R RBI SB HBP SO AVG
2016-04-04 Chi. Cubs 4.26 3.70 0.51 0.59 0.26 0.02 0.19 0.47 0.59 0.06 0.05 1.01 0.286
2016-04-05 Chi. Cubs 4.27 3.69 0.55 0.61 0.27 0.03 0.24 0.49 0.67 0.09 0.04 0.99 0.315
2016-04-07 Texas 4.42 3.57 0.74 0.71 0.22 0.04 0.26 0.79 0.61 0.10 0.06 0.85 0.344
2016-04-08 Texas 4.40 3.52 0.74 0.67 0.23 0.05 0.24 0.79 0.64 0.11 0.08 0.88 0.338
2016-04-09 Texas 4.36 3.65 0.61 0.61 0.22 0.02 0.22 0.70 0.53 0.09 0.05 0.95 0.296
2016-04-10 Texas 4.40 3.75 0.51 0.65 0.22 0.03 0.28 0.80 0.74 0.11 0.07 0.69 0.312
2016-04-11 Oakland 4.56 3.85 0.66 0.60 0.21 0.02 0.21 0.68 0.52 0.14 0.02 1.09 0.272
2016-04-12 Oakland 4.59 3.79 0.69 0.69 0.19 0.04 0.26 0.76 0.56 0.15 0.05 1.04 0.315
2016-04-13 Oakland 4.55 3.77 0.73 0.71 0.24 0.03 0.25 0.77 0.57 0.11 0.04 0.89 0.325
2016-04-15 Minnesota 4.58 3.82 0.64 0.70 0.23 0.04 0.25 0.79 0.66 0.13 0.06 0.80 0.315
2016-04-16 Minnesota 4.56 3.88 0.59 0.64 0.33 0.02 0.23 0.77 0.61 0.12 0.05 0.96 0.310
2016-04-17 Minnesota 4.60 4.05 0.50 0.61 0.34 0.02 0.24 0.77 0.59 0.08 0.02 0.82 0.294
2016-04-18 Chi. White Sox 4.61 3.84 0.67 0.54 0.29 0.03 0.15 0.63 0.50 0.06 0.01 0.94 0.259
2016-04-19 Chi. White Sox 4.59 4.02 0.48 0.66 0.25 0.01 0.14 0.52 0.52 0.11 0.03 1.17 0.263
2016-04-20 Chi. White Sox 4.47 4.00 0.38 0.60 0.27 0.04 0.20 0.58 0.61 0.10 0.04 1.11 0.271
2016-04-21 Chi. White Sox 4.63 3.99 0.58 0.70 0.24 0.04 0.23 0.70 0.69 0.14 0.01 0.98 0.301
2016-04-22 Seattle 4.30 3.77 0.43 0.68 0.19 0.01 0.25 0.66 0.56 0.13 0.05 1.09 0.295
2016-04-23 Seattle 4.36 3.77 0.56 0.66 0.14 0.02 0.24 0.60 0.46 0.09 0.01 1.10 0.281
2016-04-24 Seattle 4.34 3.67 0.60 0.59 0.23 0.01 0.23 0.61 0.57 0.11 0.03 1.01 0.292
2016-04-25 Kansas City 4.35 3.68 0.64 0.58 0.19 0.03 0.31 0.69 0.66 0.09 0.01 1.04 0.298
2016-04-26 Kansas City 4.38 3.71 0.60 0.57 0.27 0.03 0.24 0.66 0.68 0.08 0.05 1.07 0.300
2016-04-27 Kansas City 4.40 3.67 0.66 0.59 0.21 0.04 0.31 0.79 0.69 0.11 0.05 1.07 0.318
2016-04-29 Texas 4.56 3.74 0.71 0.75 0.28 0.03 0.26 1.01 0.81 0.11 0.06 0.92 0.354
2016-04-30 Texas 4.59 3.71 0.77 0.73 0.27 0.04 0.22 0.92 0.67 0.11 0.07 0.90 0.336
Date Opponent PA AB BB 1B 2B 3B HR R RBI SB HBP SO AVG
2016-05-01 Texas 4.55 3.74 0.71 0.64 0.22 0.02 0.27 0.90 0.76 0.10 0.05 1.00 0.308
2016-05-02 Milwaukee 4.66 4.03 0.54 0.63 0.26 0.00 0.30 0.73 0.80 0.10 0.04 1.11 0.296
2016-05-03 Milwaukee 4.67 3.88 0.69 0.71 0.22 0.02 0.29 0.86 0.81 0.11 0.06 0.98 0.320
2016-05-04 Milwaukee 4.64 3.92 0.63 0.61 0.23 0.01 0.27 0.82 0.78 0.12 0.04 1.05 0.287
2016-05-06 Tampa Bay 4.31 3.62 0.62 0.56 0.19 0.04 0.20 0.48 0.59 0.03 0.04 1.11 0.269
2016-05-07 Tampa Bay 4.30 3.64 0.60 0.69 0.18 0.03 0.28 0.64 0.56 0.06 0.04 0.96 0.320
2016-05-08 Tampa Bay 4.31 3.61 0.67 0.63 0.19 0.03 0.21 0.56 0.56 0.06 0.01 0.94 0.293
2016-05-10 St. Louis 4.36 3.87 0.42 0.67 0.34 0.01 0.27 0.61 0.70 0.10 0.04 0.85 0.334
2016-05-11 St. Louis 4.38 3.73 0.56 0.68 0.28 0.02 0.24 0.61 0.58 0.06 0.08 0.89 0.324
2016-05-12 St. Louis 4.37 3.80 0.49 0.63 0.20 0.01 0.22 0.55 0.51 0.09 0.08 1.12 0.282

Statlines By Game

Date Opponent PA AB BB 1B 2B 3B HR R RBI SB HBP SO AVG
2016-04-04 Chi. Cubs 4 4 0 0 0 0 0 0 0 0 0 2 0.000
2016-04-05 Chi. Cubs 4 4 0 0 0 0 0 0 0 0 0 1 0.000
2016-04-07 Texas 5 4 1 2 0 0 0 0 0 0 0 2 0.500
2016-04-08 Texas 4 3 1 1 0 0 0 0 0 0 0 0 0.333
2016-04-09 Texas 4 4 0 0 1 0 0 0 0 0 0 1 0.250
2016-04-10 Texas 4 1 2 0 0 0 0 0 2 0 0 0 0.000
2016-04-11 Oakland 4 3 1 0 0 0 1 1 2 0 0 2 0.333
2016-04-12 Oakland 4 4 0 0 0 0 0 0 0 0 0 1 0.000
2016-04-13 Oakland 5 5 0 2 1 0 0 3 0 1 0 1 0.600
2016-04-15 Minnesota 4 3 1 0 0 0 0 0 0 0 0 1 0.000
2016-04-16 Minnesota 4 4 0 1 0 0 0 0 0 0 0 1 0.250
2016-04-17 Minnesota 5 4 1 0 1 0 0 1 0 0 0 1 0.250
2016-04-18 Chi. White Sox 5 4 1 1 0 0 0 1 0 0 0 1 0.250
2016-04-19 Chi. White Sox 4 3 1 0 0 0 0 0 0 0 0 2 0.000
2016-04-20 Chi. White Sox 4 4 0 3 0 0 0 0 0 0 0 0 0.750
2016-04-21 Chi. White Sox 4 2 2 1 0 0 1 1 2 0 0 0 1.000
2016-04-22 Seattle 4 4 0 1 0 0 0 0 0 0 0 1 0.250
2016-04-23 Seattle 4 3 1 0 1 0 1 1 2 0 0 0 0.667
2016-04-24 Seattle 4 4 0 1 0 0 0 1 0 0 0 1 0.250
2016-04-25 Kansas City 4 3 1 0 0 0 1 2 1 0 0 1 0.333
2016-04-26 Kansas City 5 4 1 1 0 0 0 0 2 0 0 2 0.250
2016-04-27 Kansas City 4 4 0 0 0 0 1 1 2 0 0 1 0.250
2016-04-29 Texas 4 4 0 1 1 0 0 0 0 0 0 0 0.500
2016-04-30 Texas 4 4 0 0 0 0 0 0 0 0 0 2 0.000
Date Opponent PA AB BB 1B 2B 3B HR R RBI SB HBP SO AVG
2016-05-01 Texas 5 5 0 0 1 0 0 1 2 0 0 2 0.200
2016-05-02 Milwaukee 5 5 0 3 0 0 1 2 3 1 0 0 0.800

DFS Performance

  FanDuel DraftKings FantasyFeud DraftDay FantasyAces FantasyScore Yahoo
Date Opponent FP Value FP Value FP Value FP Value FP Value FP Value FP Value
2016-04-04 Chi. Cubs 0 0 0 0 -1 -0.1 -4 -0.3 -1 -0.2 0 0 0 0
2016-04-05 Chi. Cubs 0 0 0 0 -0.5 -0.1 -4 -0.3 -0.5 -0.1 0 0 0 0
2016-04-07 Texas 9 1.9 8 1.5 2.5 0.3 13 1.2 2 0.4 3 0.5 6
2016-04-08 Texas 6 1.3 5 1 2.25 0.3 8 0.7 2 0.4 2 0.3 4
2016-04-09 Texas 6 1.3 5 1 1.5 0.2 7 0.6 1.5 0.3 2 0.3 4
2016-04-10 Texas 13 2.8 8 1.6 6 0.7 19 1.6 4.5 0.8 4 0.6 8
2016-04-11 Oakland 25.2 5.5 18 3.5 9.5 1.1 38 3.9 7.75 1.4 8 1.2 16
2016-04-12 Oakland 0 0 0 0 -0.5 -0.1 -4 -0.4 -0.5 -0.1 0 0 0 0
2016-04-13 Oakland 27.6 5.8 22 4.2 10.5 1.2 38 3.6 9.25 1.7 9 1.4 18
2016-04-15 Minnesota 3 0.6 2 0.4 0.5 0.1 2 0.2 0.5 0.1 1 0.2 2
2016-04-16 Minnesota 3 0.6 3 0.6 0.75 0.1 2 0.2 0.5 0.1 1 0.2 2
2016-04-17 Minnesota 12.2 2.5 9 2 4 0.5 17 1.6 3.75 0.7 4 0.6 8
2016-04-18 Chi. White Sox 9.2 2 7 1.5 3.25 0.4 12 1.2 2.75 0.5 3 0.5 6
2016-04-19 Chi. White Sox 3 0.6 2 0.4 0 0 2 0.2 0 0 1 0.2 2
2016-04-20 Chi. White Sox 9 1.9 9 1.7 2.75 0.3 14 1.4 3 0.6 2 0.3 6
2016-04-21 Chi. White Sox 31.2 6.8 23 4.8 12.75 1.5 50 5 10.75 2 10 1.5 20
2016-04-22 Seattle 3 0.7 3 0.6 0.75 0.1 2 0.2 0.5 0.1 1 0.2 2
2016-04-23 Seattle 31.2 6.5 23 4.6 12.5 1.5 49 4.7 10.75 2 10 1.5 20
2016-04-24 Seattle 6.2 1.3 5 1 2.25 0.3 7 0.7 1.75 0.3 2 0.3 4
2016-04-25 Kansas City 24.9 5.1 18 3.8 9.5 1.2 38 3.6 8.25 1.5 8 1.2 16
2016-04-26 Kansas City 13 2.8 9 1.9 5.25 0.6 17 1.6 3.5 0.6 4 0.6 8
2016-04-27 Kansas City 22.2 4.6 16 3.2 9 1.1 32 2.9 7.25 1.3 7 1.1 14
2016-04-29 Texas 9 1.8 8 1.5 3.25 0.4 13 1.1 3 0.5 3 0.5 6
2016-04-30 Texas 0 0 0 0 -1 -0.1 -4 -0.3 -1 -0.2 0 0 0 0
  FanDuel DraftKings FantasyFeud DraftDay FantasyAces FantasyScore Yahoo
Date Opponent FP Value FP Value FP Value FP Value FP Value FP Value FP Value
2016-05-01 Texas 16.2 3.3 11 2.1 6.5 0.8 21 1.9 4.75 0.8 5 0.8 10
2016-05-02 Milwaukee 43.9 9.3 34 6.3 18.75 2.3 64 6.1 15.25 2.6 14 2.2 28

Player History

Year Age Team G PA H HR RBI SB BA
2016 24 L.A. Angels 26 111 30 6 18 2 0.313
2015 23 L.A. Angels 159 682 172 41 90 11 0.299
2014 22 L.A. Angels 157 705 173 36 111 16 0.287
2013 21 L.A. Angels 157 716 190 27 97 33 0.323
2012 20 L.A. Angels 139 639 182 30 83 49 0.326
2011 19 L.A. Angels 40 135 27 5 16 4 0.220
Similar Players

Similar Players

Sorry! We don't enough data on this player to make significant comparisons. This is likely due to the fact that this player is new to the league, or is an unknown commodity in terms of talent.